The Deacon — WAK9812 — position and weather

sailwx.info

Track history (hours):
 
Tides and Currents Weather Stations Pressure Air Temp Water Temp Dewpoint Dewpoint Depression Visibility Wind Speed Wind Dir Waves Ship Positions

The Deacon

Owner: G & H Towing Company, GALVESTON, TX. More information available from US FCC via Universal Licensing System and Coast Guard Vessel Documentation Center.

Last reported at 2017-Dec-11 13:54 UTC. Time now 2017-Dec-13 01:49 UTC.
Position N 29°22' W 094°51'.

Length 27 m.

Type: Tug. MMSI: 366922110.

Date/timePositionNaut miles runAvg speedWind from/ knotsBaromVisibWave heightAir tempDewpointWater temp
2017-Dec-11 13:54N 29°22' W 094°51'  
2017-Dec-08 04:13N 29°33' W 094°55'210.0
2017-Dec-08 04:00N 29°35' W 094°56'5 9.8
2017-Dec-08 03:29N 29°40' W 094°59'4 7.5
2017-Dec-08 03:00N 29°43' W 095°01'5 0.8
2017-Dec-07 20:39N 29°44' W 095°07'1 0.9
2017-Dec-07 19:20N 29°44' W 095°08'3 0.1
2017-Dec-06 22:45N 29°46' W 095°05'  
2017-Dec-04 10:30N 29°44' W 095°17'0 0.0
2017-Dec-04 10:00N 29°44' W 095°17'0 0.0
2017-Dec-04 09:30N 29°44' W 095°17'0 0.0
2017-Dec-04 08:59N 29°44' W 095°17'0 0.0
2017-Dec-04 08:30N 29°44' W 095°17'0 0.0
2017-Dec-04 08:00N 29°44' W 095°17'0 0.0
2017-Dec-04 07:29N 29°44' W 095°17'0 0.0
2017-Dec-04 06:59N 29°44' W 095°17'0 0.0
2017-Dec-04 06:30N 29°44' W 095°17'0 0.0
2017-Dec-04 06:00N 29°44' W 095°17'0 0.0
2017-Dec-04 05:30N 29°44' W 095°17'0 0.0
2017-Dec-04 05:00N 29°44' W 095°17'0 0.0
2017-Dec-04 04:30N 29°44' W 095°17'0 0.0
2017-Dec-04 04:01N 29°44' W 095°17'0 0.0
2017-Dec-04 03:30N 29°44' W 095°17'0 0.0
2017-Dec-04 03:00N 29°44' W 095°17'0 0.0
2017-Dec-04 02:30N 29°44' W 095°17'0 0.0
2017-Dec-04 02:00N 29°44' W 095°17'0 0.0
2017-Dec-04 01:30N 29°44' W 095°17'0 0.0
2017-Dec-04 00:59N 29°44' W 095°17'0 0.0
2017-Dec-04 00:30N 29°44' W 095°17'0 0.0
2017-Dec-04 00:00N 29°44' W 095°17'0 0.0
2017-Dec-03 23:28N 29°44' W 095°17'1 1.5
2017-Dec-03 22:59N 29°44' W 095°16'2 1.8
2017-Dec-03 21:55N 29°44' W 095°13'2 3.5
2017-Dec-03 21:27N 29°44' W 095°12'2 5.2
2017-Dec-03 21:00N 29°44' W 095°09'1 0.5
2017-Dec-03 19:27N 29°44' W 095°08'1 0.9
2017-Dec-03 18:46N 29°44' W 095°09'0 1.4
2017-Dec-03 18:28N 29°44' W 095°09'2 0.4
2017-Dec-03 12:15N 29°45' W 095°11'1 1.4
2017-Dec-03 11:46N 29°44' W 095°12'1 0.2
2017-Dec-03 07:43N 29°45' W 095°11'2 7.1
2017-Dec-03 07:26N 29°44' W 095°09'1 1.0
2017-Dec-03 06:07N 29°45' W 095°10'0 0.1
2017-Dec-03 06:00N 29°45' W 095°10'0 0.0
2017-Dec-03 05:24N 29°45' W 095°10'0 0.0
2017-Dec-03 04:38N 29°45' W 095°10'0 0.1
2017-Dec-03 04:30N 29°45' W 095°10'1 0.1
2017-Dec-02 16:47N 29°44' W 095°09'1 1.0
2017-Dec-02 15:45N 29°44' W 095°08'1 1.9
2017-Dec-02 14:58N 29°45' W 095°06'3 0.2
2017-Dec-01 22:38N 29°45' W 095°10'1 4.7
2017-Dec-01 22:30N 29°44' W 095°09'1 0.3
2017-Dec-01 18:05N 29°44' W 095°08'0 0.1
2017-Dec-01 17:59N 29°44' W 095°08'0 0.2
2017-Dec-01 17:21N 29°44' W 095°08'  
Track history (hours):
 
Tides and Currents Weather Stations Pressure Air Temp Water Temp Dewpoint Dewpoint Depression Visibility Wind Speed Wind Dir Waves Ship Positions

The Deacon

Owner: G & H Towing Company, GALVESTON, TX. More information available from US FCC via Universal Licensing System and Coast Guard Vessel Documentation Center.

Last reported at 2017-Dec-11 13:54 UTC. Time now 2017-Dec-13 01:49 UTC.
Position N 29°22' W 094°51'.

Length 27 m.

Type: Tug. MMSI: 366922110.

Date/timePositionNaut miles runAvg speedWind from/ knotsBaromVisibWave heightAir tempDewpointWater temp
2017-Dec-11 13:54N 29°22' W 094°51'  
2017-Dec-08 04:13N 29°33' W 094°55'210.0
2017-Dec-08 04:00N 29°35' W 094°56'5 9.8
2017-Dec-08 03:29N 29°40' W 094°59'4 7.5
2017-Dec-08 03:00N 29°43' W 095°01'5 0.8
2017-Dec-07 20:39N 29°44' W 095°07'1 0.9
2017-Dec-07 19:20N 29°44' W 095°08'3 0.1
2017-Dec-06 22:45N 29°46' W 095°05'  
2017-Dec-04 10:30N 29°44' W 095°17'0 0.0
2017-Dec-04 10:00N 29°44' W 095°17'0 0.0
2017-Dec-04 09:30N 29°44' W 095°17'0 0.0
2017-Dec-04 08:59N 29°44' W 095°17'0 0.0
2017-Dec-04 08:30N 29°44' W 095°17'0 0.0
2017-Dec-04 08:00N 29°44' W 095°17'0 0.0
2017-Dec-04 07:29N 29°44' W 095°17'0 0.0
2017-Dec-04 06:59N 29°44' W 095°17'0 0.0
2017-Dec-04 06:30N 29°44' W 095°17'0 0.0
2017-Dec-04 06:00N 29°44' W 095°17'0 0.0
2017-Dec-04 05:30N 29°44' W 095°17'0 0.0
2017-Dec-04 05:00N 29°44' W 095°17'0 0.0
2017-Dec-04 04:30N 29°44' W 095°17'0 0.0
2017-Dec-04 04:01N 29°44' W 095°17'0 0.0
2017-Dec-04 03:30N 29°44' W 095°17'0 0.0
2017-Dec-04 03:00N 29°44' W 095°17'0 0.0
2017-Dec-04 02:30N 29°44' W 095°17'0 0.0
2017-Dec-04 02:00N 29°44' W 095°17'0 0.0
2017-Dec-04 01:30N 29°44' W 095°17'0 0.0
2017-Dec-04 00:59N 29°44' W 095°17'0 0.0
2017-Dec-04 00:30N 29°44' W 095°17'0 0.0
2017-Dec-04 00:00N 29°44' W 095°17'0 0.0
2017-Dec-03 23:28N 29°44' W 095°17'1 1.5
2017-Dec-03 22:59N 29°44' W 095°16'2 1.8
2017-Dec-03 21:55N 29°44' W 095°13'2 3.5
2017-Dec-03 21:27N 29°44' W 095°12'2 5.2
2017-Dec-03 21:00N 29°44' W 095°09'1 0.5
2017-Dec-03 19:27N 29°44' W 095°08'1 0.9
2017-Dec-03 18:46N 29°44' W 095°09'0 1.4
2017-Dec-03 18:28N 29°44' W 095°09'2 0.4
2017-Dec-03 12:15N 29°45' W 095°11'1 1.4
2017-Dec-03 11:46N 29°44' W 095°12'1 0.2
2017-Dec-03 07:43N 29°45' W 095°11'2 7.1
2017-Dec-03 07:26N 29°44' W 095°09'1 1.0
2017-Dec-03 06:07N 29°45' W 095°10'0 0.1
2017-Dec-03 06:00N 29°45' W 095°10'0 0.0
2017-Dec-03 05:24N 29°45' W 095°10'0 0.0
2017-Dec-03 04:38N 29°45' W 095°10'0 0.1
2017-Dec-03 04:30N 29°45' W 095°10'1 0.1
2017-Dec-02 16:47N 29°44' W 095°09'1 1.0
2017-Dec-02 15:45N 29°44' W 095°08'1 1.9
2017-Dec-02 14:58N 29°45' W 095°06'3 0.2
2017-Dec-01 22:38N 29°45' W 095°10'1 4.7
2017-Dec-01 22:30N 29°44' W 095°09'1 0.3
2017-Dec-01 18:05N 29°44' W 095°08'0 0.1
2017-Dec-01 17:59N 29°44' W 095°08'0 0.2
2017-Dec-01 17:21N 29°44' W 095°08'  

Dump ship's entire track history